createdAt,value
2018-08-28T00:00:20.897Z,7.80
2018-08-28T00:02:48.370Z,5.53
2018-08-28T00:05:15.868Z,7.90
2018-08-28T00:07:43.356Z,7.10
2018-08-28T00:10:10.893Z,5.43
2018-08-28T00:12:38.376Z,7.53
2018-08-28T00:15:06.250Z,6.03
2018-08-28T00:17:33.859Z,6.83
2018-08-28T00:20:01.304Z,5.93
2018-08-28T00:22:28.855Z,5.30
2018-08-28T00:24:56.419Z,7.93
2018-08-28T00:27:23.889Z,8.30
2018-08-28T00:29:51.329Z,6.87
2018-08-28T00:32:18.773Z,7.00
2018-08-28T00:34:46.278Z,11.47
2018-08-28T00:37:13.800Z,9.83
2018-08-28T00:39:41.225Z,6.50
2018-08-28T00:42:08.737Z,7.27
2018-08-28T00:44:36.273Z,8.27
2018-08-28T00:47:03.953Z,7.23
2018-08-28T00:49:31.574Z,7.17
2018-08-28T00:51:58.984Z,4.97
2018-08-28T00:54:26.405Z,3.30
2018-08-28T00:56:53.927Z,6.97
2018-08-28T00:59:21.381Z,7.90
2018-08-28T01:01:48.876Z,5.17
2018-08-28T01:04:16.326Z,9.17
2018-08-28T01:06:43.803Z,6.87
2018-08-28T01:09:11.286Z,4.07
2018-08-28T01:11:38.818Z,7.83
2018-08-28T01:14:06.326Z,6.13
2018-08-28T01:16:33.768Z,7.23
2018-08-28T01:19:01.242Z,9.23
2018-08-28T01:21:28.717Z,4.10
2018-08-28T01:23:56.177Z,10.03
2018-08-28T01:26:23.645Z,8.17
2018-08-28T01:28:51.134Z,7.00
2018-08-28T01:31:18.573Z,8.97
2018-08-28T01:33:46.018Z,7.43
2018-08-28T01:36:13.514Z,5.00
2018-08-28T01:38:41.011Z,3.53
2018-08-28T01:41:08.501Z,6.97
2018-08-28T01:43:35.941Z,5.07
2018-08-28T01:46:03.387Z,3.30
2018-08-28T01:48:30.876Z,3.17
2018-08-28T01:50:58.365Z,4.90
2018-08-28T01:53:25.920Z,2.53
2018-08-28T01:55:53.414Z,5.60
2018-08-28T01:58:20.959Z,4.20
2018-08-28T02:00:48.421Z,4.13
2018-08-28T02:03:16.055Z,4.90
2018-08-28T02:05:43.535Z,4.23
2018-08-28T02:08:10.969Z,9.37
2018-08-28T02:10:38.609Z,3.50
2018-08-28T02:13:06.328Z,2.37
2018-08-28T02:15:34.097Z,2.30
2018-08-28T02:18:01.671Z,3.83
2018-08-28T02:20:29.315Z,2.83
2018-08-28T02:22:56.772Z,4.80
2018-08-28T02:25:24.314Z,3.37
2018-08-28T02:27:51.770Z,2.13
2018-08-28T02:30:19.289Z,2.57
2018-08-28T02:32:46.811Z,2.20
2018-08-28T02:35:14.452Z,5.27
2018-08-28T02:37:41.932Z,4.37
2018-08-28T02:40:09.389Z,3.90
2018-08-28T02:42:36.867Z,6.93
2018-08-28T02:45:04.392Z,5.17
2018-08-28T02:47:31.939Z,4.60
2018-08-28T02:49:59.405Z,7.33
2018-08-28T02:52:26.912Z,5.10
2018-08-28T02:54:54.410Z,3.10
2018-08-28T02:57:21.937Z,4.67
2018-08-28T02:59:55.986Z,5.07
2018-08-28T03:02:23.556Z,2.77
2018-08-28T03:04:51.018Z,7.77
2018-08-28T03:07:18.525Z,5.37
2018-08-28T03:09:46.034Z,4.03
2018-08-28T03:12:13.540Z,6.70
2018-08-28T03:14:41.040Z,7.63
2018-08-28T03:17:08.502Z,6.90
2018-08-28T03:19:36.054Z,6.40
2018-08-28T03:22:03.538Z,9.33
2018-08-28T03:24:31.029Z,7.53
2018-08-28T03:26:58.554Z,7.43
2018-08-28T03:29:26.003Z,8.20
2018-08-28T03:31:53.451Z,5.83
2018-08-28T03:34:20.974Z,4.93
2018-08-28T03:36:48.417Z,6.60
2018-08-28T03:39:15.873Z,5.80
2018-08-28T03:41:43.316Z,6.43
2018-08-28T03:44:10.806Z,9.43
2018-08-28T03:46:38.212Z,7.80
2018-08-28T03:49:05.795Z,6.90
2018-08-28T03:51:33.250Z,8.60
2018-08-28T03:54:00.708Z,8.87
2018-08-28T03:56:28.182Z,8.17
2018-08-28T03:58:55.677Z,7.77
2018-08-28T04:01:23.114Z,5.67
2018-08-28T04:03:50.659Z,5.23
2018-08-28T04:06:18.144Z,10.50
2018-08-28T04:08:45.601Z,7.73
2018-08-28T04:11:13.022Z,7.47
2018-08-28T04:13:40.514Z,6.57
2018-08-28T04:16:08.089Z,5.40
2018-08-28T04:18:35.630Z,7.73
2018-08-28T04:21:03.317Z,5.93
2018-08-28T04:23:30.877Z,6.07
2018-08-28T04:25:58.326Z,4.90
2018-08-28T04:28:25.778Z,9.60
2018-08-28T04:30:53.293Z,8.30
2018-08-28T04:33:20.765Z,6.97
2018-08-28T04:35:48.230Z,6.87
2018-08-28T04:38:15.672Z,8.37
2018-08-28T04:40:43.180Z,11.20
2018-08-28T04:43:10.665Z,6.37
2018-08-28T04:45:39.013Z,7.60
2018-08-28T04:48:06.534Z,7.20
2018-08-28T04:50:34.025Z,6.97
2018-08-28T04:53:01.448Z,9.50
2018-08-28T04:55:28.935Z,11.17
2018-08-28T04:57:56.423Z,4.73
2018-08-28T05:00:23.882Z,7.90
2018-08-28T05:02:51.317Z,7.63
2018-08-28T05:05:18.782Z,9.53
2018-08-28T05:07:46.222Z,7.17
2018-08-28T05:10:13.749Z,12.57
2018-08-28T05:12:41.174Z,10.00
2018-08-28T05:15:08.639Z,8.43
2018-08-28T05:17:36.123Z,11.50
2018-08-28T05:20:03.690Z,8.13
2018-08-28T05:22:31.192Z,11.57
2018-08-28T05:24:58.807Z,11.33
2018-08-28T05:27:26.562Z,12.10
2018-08-28T05:29:54.293Z,5.90
2018-08-28T05:32:29.162Z,10.00
2018-08-28T05:34:56.903Z,8.30
2018-08-28T05:37:24.538Z,6.80
2018-08-28T05:39:52.339Z,9.00
2018-08-28T05:42:20.122Z,9.33
2018-08-28T05:44:47.685Z,8.80
2018-08-28T05:47:15.308Z,9.20
2018-08-28T05:49:42.862Z,10.10
2018-08-28T05:52:10.362Z,11.20
2018-08-28T05:54:37.879Z,11.73
2018-08-28T05:57:05.377Z,6.70
2018-08-28T05:59:32.782Z,6.97
2018-08-28T06:02:00.275Z,11.93
2018-08-28T06:04:27.799Z,5.63
2018-08-28T06:06:55.287Z,4.87
2018-08-28T06:09:22.704Z,8.40
2018-08-28T06:11:50.216Z,8.83
2018-08-28T06:14:17.637Z,7.40
2018-08-28T06:16:45.142Z,10.37
2018-08-28T06:19:12.688Z,4.03
2018-08-28T06:21:40.325Z,7.87
2018-08-28T06:24:07.822Z,12.87
2018-08-28T06:26:35.539Z,10.47
2018-08-28T06:29:02.805Z,7.03
2018-08-28T06:31:30.304Z,8.73
2018-08-28T06:33:57.927Z,7.00
2018-08-28T06:36:25.398Z,5.40
2018-08-28T06:38:53.189Z,6.60
2018-08-28T06:41:21.126Z,4.70
2018-08-28T06:43:48.716Z,6.40
2018-08-28T06:46:16.243Z,6.40
2018-08-28T06:48:43.765Z,6.73
2018-08-28T06:51:11.190Z,9.63
2018-08-28T06:53:38.753Z,5.73
2018-08-28T06:56:06.649Z,9.87
2018-08-28T06:58:34.459Z,7.00
2018-08-28T07:01:02.397Z,6.73
2018-08-28T07:03:30.334Z,9.20
2018-08-28T07:05:58.055Z,8.23
2018-08-28T07:08:26.058Z,7.07
2018-08-28T07:10:53.844Z,8.23
2018-08-28T07:13:21.413Z,7.17
2018-08-28T07:15:49.176Z,4.60
2018-08-28T07:18:16.732Z,5.93
2018-08-28T07:20:44.217Z,8.20
2018-08-28T07:23:11.718Z,5.77
2018-08-28T07:25:39.175Z,6.57
2018-08-28T07:28:06.635Z,6.33
2018-08-28T07:30:34.044Z,4.47
2018-08-28T07:33:01.472Z,1.83
2018-08-28T07:35:28.849Z,3.50
2018-08-28T07:37:56.251Z,3.40
2018-08-28T07:40:23.840Z,3.27
2018-08-28T07:42:51.305Z,2.47
2018-08-28T07:45:18.711Z,2.47
2018-08-28T07:47:46.393Z,2.43
2018-08-28T07:50:13.794Z,3.97
2018-08-28T07:52:41.256Z,1.53
2018-08-28T07:55:08.697Z,2.03
2018-08-28T07:57:36.106Z,5.27
2018-08-28T08:00:03.655Z,1.90
2018-08-28T08:02:31.078Z,4.90
2018-08-28T08:04:58.543Z,1.07
2018-08-28T08:07:26.374Z,2.73
2018-08-28T08:09:53.803Z,1.70
2018-08-28T08:12:21.219Z,5.03
2018-08-28T08:14:48.634Z,3.00
2018-08-28T08:17:16.184Z,3.67
2018-08-28T08:19:43.607Z,1.93
2018-08-28T08:22:11.105Z,1.70
2018-08-28T08:24:38.534Z,1.77
2018-08-28T08:27:05.982Z,1.27
2018-08-28T08:29:33.469Z,3.30
2018-08-28T08:32:01.081Z,3.13
2018-08-28T08:34:28.600Z,3.23
2018-08-28T08:36:56.138Z,0.93
2018-08-28T08:39:23.524Z,3.40
2018-08-28T08:41:51.065Z,1.60
2018-08-28T08:44:18.550Z,3.20
2018-08-28T08:46:46.111Z,1.43
2018-08-28T08:49:13.558Z,3.10
2018-08-28T08:51:41.017Z,3.93
2018-08-28T08:54:08.537Z,1.70
2018-08-28T08:56:35.951Z,2.03
2018-08-28T08:59:03.435Z,1.23
2018-08-28T09:01:30.909Z,1.43
2018-08-28T09:03:58.470Z,2.07
2018-08-28T09:06:25.882Z,1.30
2018-08-28T09:08:53.395Z,2.07
2018-08-28T09:11:20.929Z,1.40
2018-08-28T09:13:48.357Z,2.33
2018-08-28T09:16:15.896Z,2.07
2018-08-28T09:18:43.474Z,2.77
2018-08-28T09:21:10.920Z,2.23
2018-08-28T09:23:38.723Z,1.83
2018-08-28T09:26:06.240Z,1.50
2018-08-28T09:28:34.208Z,2.27
2018-08-28T09:31:01.719Z,1.03
2018-08-28T09:33:29.189Z,1.33
2018-08-28T09:35:56.648Z,0.90
2018-08-28T09:38:24.276Z,2.50
2018-08-28T09:40:51.771Z,1.50
2018-08-28T09:43:19.225Z,1.47
2018-08-28T09:45:46.649Z,3.00
2018-08-28T09:48:14.206Z,2.37
2018-08-28T09:50:41.607Z,3.10
2018-08-28T09:53:09.064Z,2.10
2018-08-28T09:55:36.575Z,3.63
2018-08-28T09:58:04.025Z,1.20
2018-08-28T10:00:32.638Z,2.50
2018-08-28T10:03:00.150Z,2.60
2018-08-28T10:05:27.619Z,3.17
2018-08-28T10:07:55.226Z,2.63
2018-08-28T10:10:22.765Z,1.70
2018-08-28T10:12:50.430Z,1.10
2018-08-28T10:15:17.977Z,1.07
2018-08-28T10:17:45.425Z,0.80
2018-08-28T10:20:12.854Z,1.67
2018-08-28T10:22:40.431Z,0.93
2018-08-28T10:25:08.329Z,1.83
2018-08-28T10:27:36.053Z,0.67
2018-08-28T10:30:03.632Z,3.37
2018-08-28T10:32:31.081Z,1.50
2018-08-28T10:34:58.657Z,1.13
2018-08-28T10:37:26.142Z,2.50
2018-08-28T10:39:53.833Z,1.40
2018-08-28T10:42:21.307Z,3.60
2018-08-28T10:44:48.837Z,0.80
2018-08-28T10:47:16.257Z,1.67
2018-08-28T10:49:43.714Z,1.03
2018-08-28T10:52:11.188Z,1.00
2018-08-28T10:54:38.644Z,3.60
2018-08-28T10:57:06.197Z,2.67
2018-08-28T10:59:33.890Z,3.70
2018-08-28T11:02:01.514Z,2.00
2018-08-28T11:04:29.178Z,2.10
2018-08-28T11:06:56.681Z,2.13
2018-08-28T11:09:24.229Z,1.10
2018-08-28T11:11:51.809Z,1.73
2018-08-28T11:14:19.300Z,1.50
2018-08-28T11:16:46.773Z,2.33
2018-08-28T11:19:14.257Z,1.30
2018-08-28T11:21:41.696Z,1.40
2018-08-28T11:24:09.213Z,2.47
2018-08-28T11:26:36.649Z,1.60
2018-08-28T11:29:04.094Z,1.27
2018-08-28T11:31:31.824Z,1.40
2018-08-28T11:33:59.116Z,2.23
2018-08-28T11:36:26.632Z,1.87
2018-08-28T11:38:54.109Z,2.33
2018-08-28T11:41:21.612Z,2.70
2018-08-28T11:43:49.159Z,3.03
2018-08-28T11:46:16.598Z,5.30
2018-08-28T11:48:44.124Z,1.50
2018-08-28T11:51:11.609Z,2.37
2018-08-28T11:53:39.308Z,3.37
2018-08-28T11:56:07.200Z,4.80
2018-08-28T11:58:34.945Z,2.33
2018-08-28T12:01:02.875Z,5.23
2018-08-28T12:03:30.358Z,3.17
2018-08-28T12:05:58.101Z,3.83
2018-08-28T12:08:25.552Z,3.70
2018-08-28T12:10:53.462Z,3.13
2018-08-28T12:13:21.254Z,2.73
2018-08-28T12:15:48.997Z,2.10
2018-08-28T12:18:16.561Z,3.70
2018-08-28T12:20:43.984Z,3.67
2018-08-28T12:23:11.489Z,2.63
2018-08-28T12:25:39.024Z,6.20
2018-08-28T12:28:06.478Z,6.33
2018-08-28T12:30:33.981Z,6.03
2018-08-28T12:33:01.561Z,5.17
2018-08-28T12:35:29.005Z,3.10
2018-08-28T12:37:56.464Z,7.13
2018-08-28T12:40:23.978Z,5.00
2018-08-28T12:42:51.508Z,5.53
2018-08-28T12:45:18.966Z,7.00
2018-08-28T12:47:46.537Z,5.53
2018-08-28T12:50:14.023Z,6.70
2018-08-28T12:52:41.561Z,4.70
2018-08-28T12:55:09.230Z,5.93
2018-08-28T12:57:36.638Z,5.93
2018-08-28T13:00:04.258Z,5.07
2018-08-28T13:02:31.887Z,4.73
2018-08-28T13:04:59.297Z,3.57
2018-08-28T13:07:27.308Z,4.80
2018-08-28T13:09:54.741Z,3.20
2018-08-28T13:12:22.259Z,4.20
2018-08-28T13:14:50.224Z,3.20
2018-08-28T13:17:17.677Z,3.57
2018-08-28T13:19:45.417Z,1.63
2018-08-28T13:22:12.990Z,5.47
2018-08-28T13:24:40.494Z,4.00
2018-08-28T13:27:08.453Z,4.10
2018-08-28T13:29:35.921Z,4.70
2018-08-28T13:32:05.124Z,6.47
2018-08-28T13:34:32.698Z,7.47
2018-08-28T13:37:00.240Z,3.53
2018-08-28T13:39:27.721Z,4.70
2018-08-28T13:41:55.187Z,3.23
2018-08-28T13:44:22.655Z,4.30
2018-08-28T13:46:50.166Z,6.10
2018-08-28T13:49:17.788Z,4.50
2018-08-28T13:51:45.320Z,2.50
2018-08-28T13:54:12.884Z,2.93
2018-08-28T13:56:40.403Z,2.50
2018-08-28T13:59:07.892Z,3.83
2018-08-28T14:01:35.410Z,3.70
2018-08-28T14:04:03.256Z,3.63
2018-08-28T14:06:30.704Z,2.67
2018-08-28T14:08:58.218Z,4.33
2018-08-28T14:11:25.665Z,3.97
2018-08-28T14:13:53.235Z,5.53
2018-08-28T14:16:20.607Z,5.30
2018-08-28T14:18:48.135Z,4.77
2018-08-28T14:21:15.717Z,2.20
2018-08-28T14:23:43.383Z,2.23
2018-08-28T14:26:11.251Z,3.13
2018-08-28T14:28:38.867Z,4.03
2018-08-28T14:31:06.442Z,3.07
2018-08-28T14:33:33.890Z,2.13
2018-08-28T14:36:01.428Z,3.07
2018-08-28T14:38:28.968Z,2.73
2018-08-28T14:40:56.405Z,2.47
2018-08-28T14:43:23.864Z,1.87
2018-08-28T14:45:51.465Z,3.67
2018-08-28T14:48:18.996Z,3.17
2018-08-28T14:50:46.542Z,4.33
2018-08-28T14:53:14.297Z,3.87
2018-08-28T14:55:42.333Z,2.60
2018-08-28T14:58:10.684Z,3.40
2018-08-28T15:00:39.049Z,3.80
2018-08-28T15:03:07.658Z,7.23
2018-08-28T15:05:36.227Z,2.77
2018-08-28T15:08:04.095Z,4.17
2018-08-28T15:10:32.219Z,5.50
2018-08-28T15:13:00.238Z,6.03
2018-08-28T15:15:29.075Z,3.07
2018-08-28T15:17:57.014Z,4.03
2018-08-28T15:20:25.149Z,7.13
2018-08-28T15:22:52.657Z,5.37
2018-08-28T15:25:20.140Z,3.53
2018-08-28T15:27:47.992Z,1.77
2018-08-28T15:30:15.789Z,2.83
2018-08-28T15:32:43.245Z,3.33
2018-08-28T15:35:10.630Z,3.13
2018-08-28T15:37:38.089Z,3.27
2018-08-28T15:40:05.560Z,3.10
2018-08-28T15:42:32.986Z,2.97
2018-08-28T15:45:00.458Z,5.10
2018-08-28T15:47:27.889Z,3.07
2018-08-28T15:49:55.277Z,5.73
2018-08-28T15:52:22.713Z,3.23
2018-08-28T15:54:50.135Z,3.40
2018-08-28T15:57:17.546Z,3.63
2018-08-28T15:59:44.960Z,6.17
2018-08-28T16:02:12.474Z,3.37
2018-08-28T16:04:39.912Z,5.23
2018-08-28T16:07:07.342Z,6.20
2018-08-28T16:09:34.742Z,3.47
2018-08-28T16:12:02.171Z,2.87
2018-08-28T16:14:29.584Z,8.77
2018-08-28T16:16:56.961Z,6.03
2018-08-28T16:19:24.426Z,5.50
2018-08-28T16:21:55.921Z,3.37
2018-08-28T16:24:23.397Z,5.00
2018-08-28T16:26:51.293Z,3.53
2018-08-28T16:29:18.693Z,4.57
2018-08-28T16:31:46.136Z,4.40
2018-08-28T16:34:13.617Z,5.43
2018-08-28T16:36:41.052Z,4.53
2018-08-28T16:39:09.112Z,3.33
2018-08-28T16:41:37.242Z,4.43
2018-08-28T16:44:04.629Z,4.43
2018-08-28T16:46:32.123Z,5.03
2018-08-28T16:48:59.761Z,7.10
2018-08-28T16:51:27.561Z,6.63
2018-08-28T16:53:55.038Z,5.47
2018-08-28T16:56:22.453Z,6.43
2018-08-28T16:58:49.941Z,3.47
2018-08-28T17:01:17.379Z,4.70
2018-08-28T17:03:44.774Z,7.10
2018-08-28T17:06:12.173Z,6.57
2018-08-28T17:08:39.594Z,7.43
2018-08-28T17:11:07.053Z,4.23
2018-08-28T17:13:34.444Z,3.87
2018-08-28T17:16:01.892Z,8.60
2018-08-28T17:18:29.499Z,4.97
2018-08-28T17:20:56.920Z,5.77
2018-08-28T17:23:24.384Z,5.73
2018-08-28T17:25:51.828Z,5.70
2018-08-28T17:28:19.282Z,5.10
2018-08-28T17:30:46.788Z,4.43
2018-08-28T17:33:14.190Z,3.40
2018-08-28T17:35:41.565Z,7.17
2018-08-28T17:38:09.630Z,3.10
2018-08-28T17:40:37.136Z,4.27
2018-08-28T17:43:05.001Z,5.83
2018-08-28T17:45:32.365Z,4.83
2018-08-28T17:47:59.781Z,5.63
2018-08-28T17:50:27.184Z,8.10
2018-08-28T17:52:54.591Z,5.20
2018-08-28T17:55:22.019Z,4.43
2018-08-28T17:57:49.414Z,3.00
2018-08-28T18:00:16.961Z,5.67
2018-08-28T18:02:44.380Z,5.73
2018-08-28T18:05:11.732Z,5.37
2018-08-28T18:07:39.163Z,5.07
2018-08-28T18:10:06.563Z,4.17
2018-08-28T18:12:34.038Z,4.00
2018-08-28T18:15:01.467Z,3.63
2018-08-28T18:17:28.925Z,3.43
2018-08-28T18:19:56.296Z,6.17
2018-08-28T18:22:23.738Z,4.63
2018-08-28T18:24:51.162Z,3.13
2018-08-28T18:27:18.571Z,3.40
2018-08-28T18:29:45.973Z,4.43
2018-08-28T18:32:13.529Z,2.83
2018-08-28T18:34:40.983Z,6.23
2018-08-28T18:37:08.345Z,3.43
2018-08-28T18:39:35.825Z,3.90
2018-08-28T18:42:03.242Z,2.47
2018-08-28T18:44:30.652Z,3.00
2018-08-28T18:46:58.173Z,1.97
2018-08-28T18:49:25.537Z,2.73
2018-08-28T18:51:52.935Z,2.83
2018-08-28T18:54:20.336Z,4.50
2018-08-28T18:56:48.196Z,3.47
2018-08-28T18:59:15.593Z,3.33
2018-08-28T19:01:43.070Z,4.67
2018-08-28T19:04:10.475Z,3.63
2018-08-28T19:06:37.869Z,1.90
2018-08-28T19:09:05.366Z,3.73
2018-08-28T19:11:32.888Z,4.50
2018-08-28T19:14:00.385Z,4.33
2018-08-28T19:16:27.898Z,3.13
2018-08-28T19:18:55.309Z,4.00
2018-08-28T19:21:22.749Z,2.73
2018-08-28T19:23:50.405Z,3.40
2018-08-28T19:26:17.864Z,3.93
2018-08-28T19:28:45.374Z,5.77
2018-08-28T19:31:12.882Z,3.63
2018-08-28T19:33:40.285Z,5.03
2018-08-28T19:36:07.797Z,4.90
2018-08-28T19:38:35.307Z,4.03
2018-08-28T19:41:02.761Z,2.07
2018-08-28T19:43:30.259Z,3.33
2018-08-28T19:45:57.648Z,3.40
2018-08-28T19:48:25.045Z,3.40
2018-08-28T19:50:52.421Z,2.83
2018-08-28T19:53:19.877Z,4.60
2018-08-28T19:55:47.412Z,4.17
2018-08-28T19:58:14.881Z,3.17
2018-08-28T20:00:42.317Z,4.83
2018-08-28T20:03:09.847Z,3.37
2018-08-28T20:05:37.339Z,3.97
2018-08-28T20:08:04.825Z,2.50
2018-08-28T20:10:32.270Z,3.43
2018-08-28T20:12:59.659Z,3.97
2018-08-28T20:15:27.096Z,3.47
2018-08-28T20:17:54.805Z,5.57
2018-08-28T20:20:21.985Z,4.80
2018-08-28T20:22:49.393Z,6.63
2018-08-28T20:25:16.825Z,3.80
2018-08-28T20:27:44.269Z,4.27
2018-08-28T20:30:11.729Z,6.87
2018-08-28T20:32:39.082Z,8.67
2018-08-28T20:35:06.557Z,6.07
2018-08-28T20:37:34.000Z,4.27
2018-08-28T20:40:01.430Z,5.40
2018-08-28T20:42:28.836Z,5.17
2018-08-28T20:44:56.338Z,5.23
2018-08-28T20:47:23.844Z,3.80
2018-08-28T20:49:51.273Z,5.83
2018-08-28T20:52:18.674Z,8.47
2018-08-28T20:54:46.100Z,6.20
2018-08-28T20:57:13.508Z,3.47
2018-08-28T20:59:40.929Z,3.90
2018-08-28T21:02:08.352Z,6.60
2018-08-28T21:04:35.813Z,5.60
2018-08-28T21:07:03.230Z,5.10
2018-08-28T21:09:30.617Z,5.80
2018-08-28T21:11:58.013Z,2.23
2018-08-28T21:14:25.475Z,5.00
2018-08-28T21:16:52.880Z,6.43
2018-08-28T21:19:20.313Z,4.60
2018-08-28T21:21:47.728Z,7.33
2018-08-28T21:24:15.110Z,3.73
2018-08-28T21:26:42.556Z,3.70
2018-08-28T21:29:10.100Z,4.37
2018-08-28T21:31:37.427Z,6.03
2018-08-28T21:34:04.860Z,4.37
2018-08-28T21:36:32.347Z,6.23
2018-08-28T21:38:59.776Z,11.53
2018-08-28T21:41:27.247Z,4.53
2018-08-28T21:43:54.716Z,5.70
2018-08-28T21:46:22.093Z,5.20
2018-08-28T21:48:49.473Z,4.63
2018-08-28T21:51:16.969Z,4.10
2018-08-28T21:53:44.349Z,3.23
2018-08-28T21:56:11.746Z,6.33
2018-08-28T21:58:39.185Z,5.43
2018-08-28T22:01:09.497Z,5.23
2018-08-28T22:03:37.481Z,4.03
2018-08-28T22:06:04.932Z,6.27
2018-08-28T22:08:32.345Z,5.50
2018-08-28T22:10:59.795Z,4.67
2018-08-28T22:13:27.301Z,6.43
2018-08-28T22:15:54.648Z,7.40
2018-08-28T22:18:22.143Z,4.13
2018-08-28T22:20:54.548Z,3.80
2018-08-28T22:23:21.984Z,12.07
2018-08-28T22:25:49.373Z,6.70
2018-08-28T22:28:16.841Z,5.97
2018-08-28T22:30:44.229Z,4.20
2018-08-28T22:33:11.607Z,7.60
2018-08-28T22:35:39.057Z,5.17
2018-08-28T22:38:06.461Z,6.70
2018-08-28T22:40:33.881Z,6.03
2018-08-28T22:43:01.298Z,6.47
2018-08-28T22:45:28.664Z,6.83
2018-08-28T22:47:56.229Z,5.47
2018-08-28T22:50:23.649Z,5.30
2018-08-28T22:52:51.055Z,5.33
2018-08-28T22:55:18.448Z,4.63
2018-08-28T22:57:45.840Z,6.00
2018-08-28T23:00:14.088Z,5.83
2018-08-28T23:02:41.478Z,7.57
2018-08-28T23:05:08.950Z,7.07
2018-08-28T23:07:36.388Z,3.90
2018-08-28T23:10:03.796Z,7.47
2018-08-28T23:12:31.261Z,3.57
2018-08-28T23:14:58.641Z,5.07
2018-08-28T23:17:26.061Z,6.67
2018-08-28T23:19:53.446Z,5.03
2018-08-28T23:22:20.842Z,5.17
2018-08-28T23:24:48.253Z,8.10
2018-08-28T23:27:15.673Z,7.47
2018-08-28T23:29:43.070Z,3.50
2018-08-28T23:32:10.773Z,3.47
2018-08-28T23:34:38.188Z,4.40
2018-08-28T23:37:06.089Z,4.93
2018-08-28T23:39:33.500Z,7.53
2018-08-28T23:42:01.069Z,4.00
2018-08-28T23:44:28.484Z,5.83
2018-08-28T23:46:55.866Z,4.37
2018-08-28T23:49:23.327Z,5.33
2018-08-28T23:51:50.733Z,8.33
2018-08-28T23:54:18.116Z,3.20
2018-08-28T23:56:45.583Z,11.43
2018-08-28T23:59:12.990Z,4.57
